sensor_id;sensor_type;location;lat;lon;timestamp;temperature;humidity
70246;SHT30;57637;49.272;8.590;2023-10-09T00:01:49;13.02;86.90
70246;SHT30;57637;49.272;8.590;2023-10-09T00:04:15;13.01;86.91
70246;SHT30;57637;49.272;8.590;2023-10-09T00:06:41;12.93;86.93
70246;SHT30;57637;49.272;8.590;2023-10-09T00:09:07;12.81;86.86
70246;SHT30;57637;49.272;8.590;2023-10-09T00:11:48;12.81;87.36
70246;SHT30;57637;49.272;8.590;2023-10-09T00:14:16;12.72;87.09
70246;SHT30;57637;49.272;8.590;2023-10-09T00:16:43;12.57;87.10
70246;SHT30;57637;49.272;8.590;2023-10-09T00:19:13;12.57;87.51
70246;SHT30;57637;49.272;8.590;2023-10-09T00:21:42;12.54;87.74
70246;SHT30;57637;49.272;8.590;2023-10-09T00:24:14;12.58;87.73
70246;SHT30;57637;49.272;8.590;2023-10-09T00:26:44;12.64;87.71
70246;SHT30;57637;49.272;8.590;2023-10-09T00:29:14;12.69;87.66
70246;SHT30;57637;49.272;8.590;2023-10-09T00:31:42;12.72;87.71
70246;SHT30;57637;49.272;8.590;2023-10-09T00:34:15;12.69;87.69
70246;SHT30;57637;49.272;8.590;2023-10-09T00:36:48;12.68;87.62
70246;SHT30;57637;49.272;8.590;2023-10-09T00:39:20;12.69;87.56
70246;SHT30;57637;49.272;8.590;2023-10-09T00:42:01;12.67;87.44
70246;SHT30;57637;49.272;8.590;2023-10-09T00:44:27;12.68;87.43
70246;SHT30;57637;49.272;8.590;2023-10-09T00:47:04;12.65;87.37
70246;SHT30;57637;49.272;8.590;2023-10-09T00:49:46;12.69;87.20
70246;SHT30;57637;49.272;8.590;2023-10-09T00:52:13;12.67;87.19
70246;SHT30;57637;49.272;8.590;2023-10-09T00:54:49;12.69;87.22
70246;SHT30;57637;49.272;8.590;2023-10-09T00:57:18;12.61;86.80
70246;SHT30;57637;49.272;8.590;2023-10-09T00:59:50;12.55;86.80
70246;SHT30;57637;49.272;8.590;2023-10-09T01:02:25;12.37;87.02
70246;SHT30;57637;49.272;8.590;2023-10-09T01:05:01;12.31;87.20
70246;SHT30;57637;49.272;8.590;2023-10-09T01:07:37;12.37;87.14
70246;SHT30;57637;49.272;8.590;2023-10-09T01:10:05;12.44;87.04
70246;SHT30;57637;49.272;8.590;2023-10-09T01:12:34;12.51;86.99
70246;SHT30;57637;49.272;8.590;2023-10-09T01:15:07;12.60;86.78
70246;SHT30;57637;49.272;8.590;2023-10-09T01:17:33;12.64;86.71
70246;SHT30;57637;49.272;8.590;2023-10-09T01:20:02;12.65;86.63
70246;SHT30;57637;49.272;8.590;2023-10-09T01:22:41;12.74;86.41
70246;SHT30;57637;49.272;8.590;2023-10-09T01:25:08;12.74;86.46
70246;SHT30;57637;49.272;8.590;2023-10-09T01:27:34;12.75;86.26
70246;SHT30;57637;49.272;8.590;2023-10-09T01:30:00;12.77;86.37
70246;SHT30;57637;49.272;8.590;2023-10-09T01:32:25;12.80;86.26
70246;SHT30;57637;49.272;8.590;2023-10-09T01:34:51;12.81;86.32
70246;SHT30;57637;49.272;8.590;2023-10-09T01:37:19;12.78;85.97
70246;SHT30;57637;49.272;8.590;2023-10-09T01:39:52;12.81;86.17
70246;SHT30;57637;49.272;8.590;2023-10-09T01:42:23;12.84;86.29
70246;SHT30;57637;49.272;8.590;2023-10-09T01:44:57;12.93;86.25
70246;SHT30;57637;49.272;8.590;2023-10-09T01:47:41;12.93;86.33
70246;SHT30;57637;49.272;8.590;2023-10-09T01:50:16;12.95;86.45
70246;SHT30;57637;49.272;8.590;2023-10-09T01:52:50;12.98;86.37
70246;SHT30;57637;49.272;8.590;2023-10-09T01:55:18;12.95;86.30
70246;SHT30;57637;49.272;8.590;2023-10-09T01:58:13;12.98;86.19
70246;SHT30;57637;49.272;8.590;2023-10-09T02:00:47;12.99;86.20
70246;SHT30;57637;49.272;8.590;2023-10-09T02:03:26;13.02;86.01
70246;SHT30;57637;49.272;8.590;2023-10-09T02:05:54;13.03;86.05
70246;SHT30;57637;49.272;8.590;2023-10-09T02:08:28;13.05;85.92
70246;SHT30;57637;49.272;8.590;2023-10-09T02:10:54;13.08;85.86
70246;SHT30;57637;49.272;8.590;2023-10-09T02:13:21;13.08;85.84
70246;SHT30;57637;49.272;8.590;2023-10-09T02:15:55;13.05;85.88
70246;SHT30;57637;49.272;8.590;2023-10-09T02:18:23;13.02;86.06
70246;SHT30;57637;49.272;8.590;2023-10-09T02:20:53;13.03;86.03
70246;SHT30;57637;49.272;8.590;2023-10-09T02:23:24;13.02;85.91
70246;SHT30;57637;49.272;8.590;2023-10-09T02:26:13;12.96;86.08
70246;SHT30;57637;49.272;8.590;2023-10-09T02:28:50;12.93;86.16
70246;SHT30;57637;49.272;8.590;2023-10-09T02:31:29;12.85;86.16
70246;SHT30;57637;49.272;8.590;2023-10-09T02:34:15;12.80;86.22
70246;SHT30;57637;49.272;8.590;2023-10-09T02:36:41;12.75;86.35
70246;SHT30;57637;49.272;8.590;2023-10-09T02:39:07;12.82;86.32
70246;SHT30;57637;49.272;8.590;2023-10-09T02:41:46;12.85;86.13
70246;SHT30;57637;49.272;8.590;2023-10-09T02:44:14;12.89;86.16
70246;SHT30;57637;49.272;8.590;2023-10-09T02:46:40;12.88;86.00
70246;SHT30;57637;49.272;8.590;2023-10-09T02:49:09;12.89;86.00
70246;SHT30;57637;49.272;8.590;2023-10-09T02:51:34;12.92;86.08
70246;SHT30;57637;49.272;8.590;2023-10-09T02:54:06;12.98;86.05
70246;SHT30;57637;49.272;8.590;2023-10-09T02:56:47;13.03;85.93
70246;SHT30;57637;49.272;8.590;2023-10-09T02:59:20;13.05;85.83
70246;SHT30;57637;49.272;8.590;2023-10-09T03:01:47;13.09;85.72
70246;SHT30;57637;49.272;8.590;2023-10-09T03:04:12;13.12;85.68
70246;SHT30;57637;49.272;8.590;2023-10-09T03:06:39;13.16;85.55
70246;SHT30;57637;49.272;8.590;2023-10-09T03:09:18;13.15;85.43
70246;SHT30;57637;49.272;8.590;2023-10-09T03:11:51;13.19;85.38
70246;SHT30;57637;49.272;8.590;2023-10-09T03:14:23;13.20;85.53
70246;SHT30;57637;49.272;8.590;2023-10-09T03:16:54;13.20;85.61
70246;SHT30;57637;49.272;8.590;2023-10-09T03:19:21;13.20;85.31
70246;SHT30;57637;49.272;8.590;2023-10-09T03:21:47;13.20;85.42
70246;SHT30;57637;49.272;8.590;2023-10-09T03:24:12;13.19;85.48
70246;SHT30;57637;49.272;8.590;2023-10-09T03:26:37;13.19;85.61
70246;SHT30;57637;49.272;8.590;2023-10-09T03:29:03;13.20;85.62
70246;SHT30;57637;49.272;8.590;2023-10-09T03:31:35;13.23;85.71
70246;SHT30;57637;49.272;8.590;2023-10-09T03:34:02;13.24;85.56
70246;SHT30;57637;49.272;8.590;2023-10-09T03:36:28;13.22;85.46
70246;SHT30;57637;49.272;8.590;2023-10-09T03:38:55;13.23;85.46
70246;SHT30;57637;49.272;8.590;2023-10-09T03:41:23;13.23;85.73
70246;SHT30;57637;49.272;8.590;2023-10-09T03:43:51;13.22;85.75
70246;SHT30;57637;49.272;8.590;2023-10-09T03:46:17;13.22;85.76
70246;SHT30;57637;49.272;8.590;2023-10-09T03:48:58;13.20;85.81
70246;SHT30;57637;49.272;8.590;2023-10-09T03:51:28;13.20;85.79
70246;SHT30;57637;49.272;8.590;2023-10-09T03:53:54;13.16;85.70
70246;SHT30;57637;49.272;8.590;2023-10-09T03:56:20;13.12;85.70
70246;SHT30;57637;49.272;8.590;2023-10-09T03:58:49;13.12;85.83
70246;SHT30;57637;49.272;8.590;2023-10-09T04:01:17;13.09;85.98
70246;SHT30;57637;49.272;8.590;2023-10-09T04:03:48;13.08;86.04
70246;SHT30;57637;49.272;8.590;2023-10-09T04:06:23;13.03;86.10
70246;SHT30;57637;49.272;8.590;2023-10-09T04:08:53;12.99;86.19
70246;SHT30;57637;49.272;8.590;2023-10-09T04:11:19;12.93;86.41
70246;SHT30;57637;49.272;8.590;2023-10-09T04:13:48;12.92;86.35
70246;SHT30;57637;49.272;8.590;2023-10-09T04:16:14;12.88;86.29
70246;SHT30;57637;49.272;8.590;2023-10-09T04:18:52;12.82;86.41
70246;SHT30;57637;49.272;8.590;2023-10-09T04:21:21;12.82;86.59
70246;SHT30;57637;49.272;8.590;2023-10-09T04:24:02;12.82;86.75
70246;SHT30;57637;49.272;8.590;2023-10-09T04:26:47;12.87;86.59
70246;SHT30;57637;49.272;8.590;2023-10-09T04:29:16;12.88;86.54
70246;SHT30;57637;49.272;8.590;2023-10-09T04:32:02;12.89;86.37
70246;SHT30;57637;49.272;8.590;2023-10-09T04:34:32;12.89;86.20
70246;SHT30;57637;49.272;8.590;2023-10-09T04:37:02;12.89;86.08
70246;SHT30;57637;49.272;8.590;2023-10-09T04:39:42;12.89;86.08
70246;SHT30;57637;49.272;8.590;2023-10-09T04:42:40;12.91;85.94
70246;SHT30;57637;49.272;8.590;2023-10-09T04:45:22;12.91;85.85
70246;SHT30;57637;49.272;8.590;2023-10-09T04:48:08;12.93;85.84
70246;SHT30;57637;49.272;8.590;2023-10-09T04:50:34;12.93;85.86
70246;SHT30;57637;49.272;8.590;2023-10-09T04:53:00;12.95;85.82
70246;SHT30;57637;49.272;8.590;2023-10-09T04:55:51;12.98;85.77
70246;SHT30;57637;49.272;8.590;2023-10-09T04:58:20;12.98;85.70
70246;SHT30;57637;49.272;8.590;2023-10-09T05:00:49;13.05;85.72
70246;SHT30;57637;49.272;8.590;2023-10-09T05:03:24;13.11;85.53
70246;SHT30;57637;49.272;8.590;2023-10-09T05:05:50;13.20;85.46
70246;SHT30;57637;49.272;8.590;2023-10-09T05:08:23;13.26;85.29
70246;SHT30;57637;49.272;8.590;2023-10-09T05:10:54;13.36;85.13
70246;SHT30;57637;49.272;8.590;2023-10-09T05:13:27;13.39;84.91
70246;SHT30;57637;49.272;8.590;2023-10-09T05:16:06;13.46;84.79
70246;SHT30;57637;49.272;8.590;2023-10-09T05:18:44;13.52;84.68
70246;SHT30;57637;49.272;8.590;2023-10-09T05:21:24;13.59;84.46
70246;SHT30;57637;49.272;8.590;2023-10-09T05:23:58;13.74;84.32
70246;SHT30;57637;49.272;8.590;2023-10-09T05:26:49;13.77;84.00
70246;SHT30;57637;49.272;8.590;2023-10-09T05:29:15;13.84;83.87
70246;SHT30;57637;49.272;8.590;2023-10-09T05:32:02;13.84;83.66
70246;SHT30;57637;49.272;8.590;2023-10-09T05:34:41;13.93;83.70
70246;SHT30;57637;49.272;8.590;2023-10-09T05:37:26;14.00;83.63
70246;SHT30;57637;49.272;8.590;2023-10-09T05:39:59;14.01;83.25
70246;SHT30;57637;49.272;8.590;2023-10-09T05:42:27;14.07;83.12
70246;SHT30;57637;49.272;8.590;2023-10-09T05:45:02;14.08;83.12
70246;SHT30;57637;49.272;8.590;2023-10-09T05:48:02;14.13;82.96
70246;SHT30;57637;49.272;8.590;2023-10-09T05:50:28;14.11;83.08
70246;SHT30;57637;49.272;8.590;2023-10-09T05:52:55;14.13;82.93
70246;SHT30;57637;49.272;8.590;2023-10-09T05:55:22;14.17;82.69
70246;SHT30;57637;49.272;8.590;2023-10-09T05:58:07;14.15;82.70
70246;SHT30;57637;49.272;8.590;2023-10-09T06:00:51;14.20;82.71
70246;SHT30;57637;49.272;8.590;2023-10-09T06:03:38;14.28;82.28
70246;SHT30;57637;49.272;8.590;2023-10-09T06:06:42;14.32;82.21
70246;SHT30;57637;49.272;8.590;2023-10-09T06:09:09;14.35;82.08
70246;SHT30;57637;49.272;8.590;2023-10-09T06:11:39;14.38;82.03
70246;SHT30;57637;49.272;8.590;2023-10-09T06:14:28;14.42;81.90
70246;SHT30;57637;49.272;8.590;2023-10-09T06:16:54;14.48;81.82
70246;SHT30;57637;49.272;8.590;2023-10-09T06:19:22;14.54;81.72
70246;SHT30;57637;49.272;8.590;2023-10-09T06:21:58;14.56;81.56
70246;SHT30;57637;49.272;8.590;2023-10-09T06:24:24;14.59;81.45
70246;SHT30;57637;49.272;8.590;2023-10-09T06:26:51;14.66;81.37
70246;SHT30;57637;49.272;8.590;2023-10-09T06:29:25;14.69;81.23
70246;SHT30;57637;49.272;8.590;2023-10-09T06:32:03;14.72;81.16
70246;SHT30;57637;49.272;8.590;2023-10-09T06:34:45;14.78;81.01
70246;SHT30;57637;49.272;8.590;2023-10-09T06:37:12;14.82;80.85
70246;SHT30;57637;49.272;8.590;2023-10-09T06:39:49;14.85;80.78
70246;SHT30;57637;49.272;8.590;2023-10-09T06:42:21;14.92;80.78
70246;SHT30;57637;49.272;8.590;2023-10-09T06:45:02;14.90;80.63
70246;SHT30;57637;49.272;8.590;2023-10-09T06:47:33;14.96;80.45
70246;SHT30;57637;49.272;8.590;2023-10-09T06:50:18;14.99;80.38
70246;SHT30;57637;49.272;8.590;2023-10-09T06:52:47;15.03;80.27
70246;SHT30;57637;49.272;8.590;2023-10-09T06:55:23;15.07;80.20
70246;SHT30;57637;49.272;8.590;2023-10-09T06:58:13;15.11;79.91
70246;SHT30;57637;49.272;8.590;2023-10-09T07:00:47;15.16;79.76
70246;SHT30;57637;49.272;8.590;2023-10-09T07:03:32;15.20;79.64
70246;SHT30;57637;49.272;8.590;2023-10-09T07:06:07;15.23;79.28
70246;SHT30;57637;49.272;8.590;2023-10-09T07:08:51;15.29;79.14
70246;SHT30;57637;49.272;8.590;2023-10-09T07:11:33;15.34;79.06
70246;SHT30;57637;49.272;8.590;2023-10-09T07:14:04;15.40;78.90
70246;SHT30;57637;49.272;8.590;2023-10-09T07:16:31;15.46;78.67
70246;SHT30;57637;49.272;8.590;2023-10-09T07:19:22;15.53;78.50
70246;SHT30;57637;49.272;8.590;2023-10-09T07:22:03;15.60;78.15
70246;SHT30;57637;49.272;8.590;2023-10-09T07:24:31;15.68;77.79
70246;SHT30;57637;49.272;8.590;2023-10-09T07:27:08;15.77;77.60
70246;SHT30;57637;49.272;8.590;2023-10-09T07:29:40;15.85;77.22
70246;SHT30;57637;49.272;8.590;2023-10-09T07:32:17;15.92;76.90
70246;SHT30;57637;49.272;8.590;2023-10-09T07:34:46;16.04;76.59
70246;SHT30;57637;49.272;8.590;2023-10-09T07:37:25;16.12;76.35
70246;SHT30;57637;49.272;8.590;2023-10-09T07:39:58;16.21;76.01
70246;SHT30;57637;49.272;8.590;2023-10-09T07:42:27;16.30;75.67
70246;SHT30;57637;49.272;8.590;2023-10-09T07:45:09;16.38;75.04
70246;SHT30;57637;49.272;8.590;2023-10-09T07:47:59;16.49;74.81
70246;SHT30;57637;49.272;8.590;2023-10-09T07:50:24;16.60;74.69
70246;SHT30;57637;49.272;8.590;2023-10-09T07:52:55;16.67;74.18
70246;SHT30;57637;49.272;8.590;2023-10-09T07:55:39;16.79;73.99
70246;SHT30;57637;49.272;8.590;2023-10-09T07:58:10;16.88;73.82
70246;SHT30;57637;49.272;8.590;2023-10-09T08:00:37;16.99;73.68
70246;SHT30;57637;49.272;8.590;2023-10-09T08:03:23;17.08;73.53
70246;SHT30;57637;49.272;8.590;2023-10-09T08:05:54;17.15;73.35
70246;SHT30;57637;49.272;8.590;2023-10-09T08:08:32;17.20;73.09
70246;SHT30;57637;49.272;8.590;2023-10-09T08:10:59;17.23;72.68
70246;SHT30;57637;49.272;8.590;2023-10-09T08:13:43;17.27;72.11
70246;SHT30;57637;49.272;8.590;2023-10-09T08:16:14;17.35;72.23
70246;SHT30;57637;49.272;8.590;2023-10-09T08:18:47;17.41;71.96
70246;SHT30;57637;49.272;8.590;2023-10-09T08:21:16;17.46;71.91
70246;SHT30;57637;49.272;8.590;2023-10-09T08:23:45;17.58;72.03
70246;SHT30;57637;49.272;8.590;2023-10-09T08:26:13;17.69;71.49
70246;SHT30;57637;49.272;8.590;2023-10-09T08:28:43;17.81;71.32
70246;SHT30;57637;49.272;8.590;2023-10-09T08:31:14;17.96;71.00
70246;SHT30;57637;49.272;8.590;2023-10-09T08:33:47;18.13;70.45
70246;SHT30;57637;49.272;8.590;2023-10-09T08:36:26;18.29;70.06
70246;SHT30;57637;49.272;8.590;2023-10-09T08:39:02;18.47;69.58
70246;SHT30;57637;49.272;8.590;2023-10-09T08:41:41;18.72;69.38
70246;SHT30;57637;49.272;8.590;2023-10-09T08:44:07;18.92;69.01
70246;SHT30;57637;49.272;8.590;2023-10-09T08:46:37;19.05;68.35
70246;SHT30;57637;49.272;8.590;2023-10-09T08:49:04;19.10;67.84
70246;SHT30;57637;49.272;8.590;2023-10-09T08:51:34;19.31;67.44
70246;SHT30;57637;49.272;8.590;2023-10-09T08:54:00;19.43;67.08
70246;SHT30;57637;49.272;8.590;2023-10-09T08:56:26;19.63;67.10
70246;SHT30;57637;49.272;8.590;2023-10-09T08:58:56;19.79;66.78
70246;SHT30;57637;49.272;8.590;2023-10-09T09:01:22;19.94;66.44
70246;SHT30;57637;49.272;8.590;2023-10-09T09:03:49;20.06;66.04
70246;SHT30;57637;49.272;8.590;2023-10-09T09:06:19;20.16;65.86
70246;SHT30;57637;49.272;8.590;2023-10-09T09:08:46;20.25;65.38
70246;SHT30;57637;49.272;8.590;2023-10-09T09:11:13;20.30;65.35
70246;SHT30;57637;49.272;8.590;2023-10-09T09:13:43;20.35;65.03
70246;SHT30;57637;49.272;8.590;2023-10-09T09:16:29;20.45;65.03
70246;SHT30;57637;49.272;8.590;2023-10-09T09:22:20;20.69;64.84
70246;SHT30;57637;49.272;8.590;2023-10-09T09:24:36;20.78;64.57
70246;SHT30;57637;49.272;8.590;2023-10-09T09:27:19;20.86;64.48
70246;SHT30;57637;49.272;8.590;2023-10-09T09:29:45;20.92;64.21
70246;SHT30;57637;49.272;8.590;2023-10-09T09:32:19;20.94;64.34
70246;SHT30;57637;49.272;8.590;2023-10-09T09:34:55;20.89;64.11
70246;SHT30;57637;49.272;8.590;2023-10-09T09:37:51;20.88;64.11
70246;SHT30;57637;49.272;8.590;2023-10-09T09:40:20;20.88;64.34
70246;SHT30;57637;49.272;8.590;2023-10-09T09:42:56;20.79;64.42
70246;SHT30;57637;49.272;8.590;2023-10-09T09:45:39;20.75;64.49
70246;SHT30;57637;49.272;8.590;2023-10-09T09:48:11;20.71;64.54
70246;SHT30;57637;49.272;8.590;2023-10-09T09:50:41;20.71;64.74
70246;SHT30;57637;49.272;8.590;2023-10-09T09:53:13;20.79;64.72
70246;SHT30;57637;49.272;8.590;2023-10-09T09:55:49;20.85;64.87
70246;SHT30;57637;49.272;8.590;2023-10-09T09:58:22;20.94;64.48
70246;SHT30;57637;49.272;8.590;2023-10-09T10:00:52;21.08;64.83
70246;SHT30;57637;49.272;8.590;2023-10-09T10:03:24;21.22;64.63
70246;SHT30;57637;49.272;8.590;2023-10-09T10:05:58;21.30;64.23
70246;SHT30;57637;49.272;8.590;2023-10-09T10:08:29;21.33;63.59
70246;SHT30;57637;49.272;8.590;2023-10-09T10:10:58;21.39;63.75
70246;SHT30;57637;49.272;8.590;2023-10-09T10:18:59;21.70;63.67
70246;SHT30;57637;49.272;8.590;2023-10-09T10:21:32;21.77;63.62
70246;SHT30;57637;49.272;8.590;2023-10-09T10:29:34;21.54;63.77
70246;SHT30;57637;49.272;8.590;2023-10-09T10:32:01;21.46;63.67
70246;SHT30;57637;49.272;8.590;2023-10-09T10:37:21;21.47;63.53
70246;SHT30;57637;49.272;8.590;2023-10-09T10:40:24;21.47;64.01
70246;SHT30;57637;49.272;8.590;2023-10-09T10:43:14;21.37;64.06
70246;SHT30;57637;49.272;8.590;2023-10-09T10:46:08;21.36;64.05
70246;SHT30;57637;49.272;8.590;2023-10-09T10:48:52;21.45;64.21
70246;SHT30;57637;49.272;8.590;2023-10-09T10:51:39;21.59;64.62
70246;SHT30;57637;49.272;8.590;2023-10-09T10:54:05;21.71;64.24
70246;SHT30;57637;49.272;8.590;2023-10-09T10:56:51;21.83;63.65
70246;SHT30;57637;49.272;8.590;2023-10-09T10:59:19;21.94;64.17
70246;SHT30;57637;49.272;8.590;2023-10-09T11:01:52;22.12;63.45
70246;SHT30;57637;49.272;8.590;2023-10-09T11:04:19;22.31;62.73
70246;SHT30;57637;49.272;8.590;2023-10-09T11:06:55;22.48;62.26
70246;SHT30;57637;49.272;8.590;2023-10-09T11:12:23;22.56;61.96
70246;SHT30;57637;49.272;8.590;2023-10-09T11:14:49;22.66;61.65
70246;SHT30;57637;49.272;8.590;2023-10-09T11:17:31;22.71;61.39
70246;SHT30;57637;49.272;8.590;2023-10-09T11:19:58;22.66;61.47
70246;SHT30;57637;49.272;8.590;2023-10-09T11:22:29;22.71;61.47
70246;SHT30;57637;49.272;8.590;2023-10-09T11:25:01;22.95;60.89
70246;SHT30;57637;49.272;8.590;2023-10-09T11:27:47;23.20;60.09
70246;SHT30;57637;49.272;8.590;2023-10-09T11:30:15;23.53;59.71
70246;SHT30;57637;49.272;8.590;2023-10-09T11:33:03;23.78;58.50
70246;SHT30;57637;49.272;8.590;2023-10-09T11:35:30;24.00;57.89
70246;SHT30;57637;49.272;8.590;2023-10-09T11:37:59;24.19;56.94
70246;SHT30;57637;49.272;8.590;2023-10-09T11:40:27;24.21;56.41
70246;SHT30;57637;49.272;8.590;2023-10-09T11:43:13;24.35;56.79
70246;SHT30;57637;49.272;8.590;2023-10-09T11:45:45;24.33;55.77
70246;SHT30;57637;49.272;8.590;2023-10-09T11:48:21;24.51;56.13
70246;SHT30;57637;49.272;8.590;2023-10-09T11:51:11;24.75;55.55
70246;SHT30;57637;49.272;8.590;2023-10-09T11:53:46;24.82;55.51
70246;SHT30;57637;49.272;8.590;2023-10-09T11:56:15;24.87;54.66
70246;SHT30;57637;49.272;8.590;2023-10-09T11:58:46;24.80;54.77
70246;SHT30;57637;49.272;8.590;2023-10-09T12:01:15;24.37;53.11
70246;SHT30;57637;49.272;8.590;2023-10-09T12:03:45;24.32;52.66
70246;SHT30;57637;49.272;8.590;2023-10-09T12:06:14;24.25;53.09
70246;SHT30;57637;49.272;8.590;2023-10-09T12:08:39;24.04;53.15
70246;SHT30;57637;49.272;8.590;2023-10-09T12:11:05;23.95;53.78
70246;SHT30;57637;49.272;8.590;2023-10-09T12:13:36;23.97;54.48
70246;SHT30;57637;49.272;8.590;2023-10-09T12:16:07;24.04;53.83
70246;SHT30;57637;49.272;8.590;2023-10-09T12:18:36;24.28;53.52
70246;SHT30;57637;49.272;8.590;2023-10-09T12:21:04;24.36;52.77
70246;SHT30;57637;49.272;8.590;2023-10-09T12:23:31;24.49;52.95
70246;SHT30;57637;49.272;8.590;2023-10-09T12:26:02;24.60;52.94
70246;SHT30;57637;49.272;8.590;2023-10-09T12:28:29;24.76;52.67
70246;SHT30;57637;49.272;8.590;2023-10-09T12:30:55;24.86;52.89
70246;SHT30;57637;49.272;8.590;2023-10-09T12:33:26;24.75;52.48
70246;SHT30;57637;49.272;8.590;2023-10-09T12:35:53;24.90;52.87
70246;SHT30;57637;49.272;8.590;2023-10-09T12:38:26;25.02;53.19
70246;SHT30;57637;49.272;8.590;2023-10-09T12:41:05;24.97;52.49
70246;SHT30;57637;49.272;8.590;2023-10-09T12:44:07;24.98;52.07
70246;SHT30;57637;49.272;8.590;2023-10-09T12:46:39;24.94;52.61
70246;SHT30;57637;49.272;8.590;2023-10-09T12:49:06;24.79;52.15
70246;SHT30;57637;49.272;8.590;2023-10-09T12:51:31;24.73;52.85
70246;SHT30;57637;49.272;8.590;2023-10-09T12:53:57;24.67;52.60
70246;SHT30;57637;49.272;8.590;2023-10-09T12:56:23;24.69;52.46
70246;SHT30;57637;49.272;8.590;2023-10-09T12:58:57;24.65;51.33
70246;SHT30;57637;49.272;8.590;2023-10-09T13:01:27;24.72;50.33
70246;SHT30;57637;49.272;8.590;2023-10-09T13:04:11;24.76;51.52
70246;SHT30;57637;49.272;8.590;2023-10-09T13:06:39;24.83;50.76
70246;SHT30;57637;49.272;8.590;2023-10-09T13:09:14;24.84;50.25
70246;SHT30;57637;49.272;8.590;2023-10-09T13:11:41;24.93;50.32
70246;SHT30;57637;49.272;8.590;2023-10-09T13:14:07;25.03;50.68
70246;SHT30;57637;49.272;8.590;2023-10-09T13:16:45;25.03;50.43
70246;SHT30;57637;49.272;8.590;2023-10-09T13:19:12;24.98;50.15
70246;SHT30;57637;49.272;8.590;2023-10-09T13:21:37;24.91;50.39
70246;SHT30;57637;49.272;8.590;2023-10-09T13:24:07;24.86;50.17
70246;SHT30;57637;49.272;8.590;2023-10-09T13:26:41;24.73;50.23
70246;SHT30;57637;49.272;8.590;2023-10-09T13:29:11;24.70;50.56
70246;SHT30;57637;49.272;8.590;2023-10-09T13:31:38;24.56;50.86
70246;SHT30;57637;49.272;8.590;2023-10-09T13:34:05;24.76;51.34
70246;SHT30;57637;49.272;8.590;2023-10-09T13:36:40;24.80;50.75
70246;SHT30;57637;49.272;8.590;2023-10-09T13:39:10;24.79;50.70
70246;SHT30;57637;49.272;8.590;2023-10-09T13:41:58;24.83;50.43
70246;SHT30;57637;49.272;8.590;2023-10-09T13:44:27;24.87;50.26
70246;SHT30;57637;49.272;8.590;2023-10-09T13:46:54;24.88;49.93
70246;SHT30;57637;49.272;8.590;2023-10-09T13:49:23;24.98;49.89
70246;SHT30;57637;49.272;8.590;2023-10-09T13:51:55;24.90;49.90
70246;SHT30;57637;49.272;8.590;2023-10-09T13:54:23;24.82;49.89
70246;SHT30;57637;49.272;8.590;2023-10-09T13:57:01;24.90;50.18
70246;SHT30;57637;49.272;8.590;2023-10-09T13:59:29;24.72;49.40
70246;SHT30;57637;49.272;8.590;2023-10-09T14:01:55;24.67;49.70
70246;SHT30;57637;49.272;8.590;2023-10-09T14:04:25;24.67;50.10
70246;SHT30;57637;49.272;8.590;2023-10-09T14:06:53;24.60;49.78
70246;SHT30;57637;49.272;8.590;2023-10-09T14:09:23;24.63;49.75
70246;SHT30;57637;49.272;8.590;2023-10-09T14:12:10;24.63;49.73
70246;SHT30;57637;49.272;8.590;2023-10-09T14:17:16;24.76;50.00
70246;SHT30;57637;49.272;8.590;2023-10-09T14:19:50;24.67;50.04
70246;SHT30;57637;49.272;8.590;2023-10-09T14:22:18;24.73;50.25
70246;SHT30;57637;49.272;8.590;2023-10-09T14:24:45;24.87;50.63
70246;SHT30;57637;49.272;8.590;2023-10-09T14:27:14;24.75;50.89
70246;SHT30;57637;49.272;8.590;2023-10-09T14:29:47;24.93;50.61
70246;SHT30;57637;49.272;8.590;2023-10-09T14:32:13;25.02;50.35
70246;SHT30;57637;49.272;8.590;2023-10-09T14:34:40;24.97;50.21
70246;SHT30;57637;49.272;8.590;2023-10-09T14:37:15;24.96;50.12
70246;SHT30;57637;49.272;8.590;2023-10-09T14:39:42;24.94;50.42
70246;SHT30;57637;49.272;8.590;2023-10-09T14:42:08;24.98;50.53
70246;SHT30;57637;49.272;8.590;2023-10-09T14:44:39;25.04;50.64
70246;SHT30;57637;49.272;8.590;2023-10-09T14:47:05;24.94;50.39
70246;SHT30;57637;49.272;8.590;2023-10-09T14:49:32;24.90;49.80
70246;SHT30;57637;49.272;8.590;2023-10-09T14:52:05;24.88;49.30
70246;SHT30;57637;49.272;8.590;2023-10-09T14:54:34;24.86;49.26
70246;SHT30;57637;49.272;8.590;2023-10-09T14:57:00;24.88;48.99
70246;SHT30;57637;49.272;8.590;2023-10-09T14:59:25;24.80;48.81
70246;SHT30;57637;49.272;8.590;2023-10-09T15:01:58;24.86;48.87
70246;SHT30;57637;49.272;8.590;2023-10-09T15:04:40;24.84;48.62
70246;SHT30;57637;49.272;8.590;2023-10-09T15:07:05;24.82;48.82
70246;SHT30;57637;49.272;8.590;2023-10-09T15:09:37;24.77;49.42
70246;SHT30;57637;49.272;8.590;2023-10-09T15:12:05;24.77;49.38
70246;SHT30;57637;49.272;8.590;2023-10-09T15:14:31;24.65;49.49
70246;SHT30;57637;49.272;8.590;2023-10-09T15:16:57;24.66;49.59
70246;SHT30;57637;49.272;8.590;2023-10-09T15:19:22;24.57;49.25
70246;SHT30;57637;49.272;8.590;2023-10-09T15:21:54;24.53;48.51
70246;SHT30;57637;49.272;8.590;2023-10-09T15:24:20;24.52;48.97
70246;SHT30;57637;49.272;8.590;2023-10-09T15:26:46;24.52;48.80
70246;SHT30;57637;49.272;8.590;2023-10-09T15:29:20;24.46;49.30
70246;SHT30;57637;49.272;8.590;2023-10-09T15:31:54;24.42;49.20
70246;SHT30;57637;49.272;8.590;2023-10-09T15:34:20;24.39;50.02
70246;SHT30;57637;49.272;8.590;2023-10-09T15:36:46;24.30;50.00
70246;SHT30;57637;49.272;8.590;2023-10-09T15:39:15;24.22;49.98
70246;SHT30;57637;49.272;8.590;2023-10-09T15:41:47;24.11;50.23
70246;SHT30;57637;49.272;8.590;2023-10-09T15:44:14;24.00;50.42
70246;SHT30;57637;49.272;8.590;2023-10-09T15:46:39;23.94;51.11
70246;SHT30;57637;49.272;8.590;2023-10-09T15:49:05;23.81;51.30
70246;SHT30;57637;49.272;8.590;2023-10-09T15:51:34;23.74;51.94
70246;SHT30;57637;49.272;8.590;2023-10-09T15:53:59;23.60;52.08
70246;SHT30;57637;49.272;8.590;2023-10-09T15:56:26;23.53;52.56
70246;SHT30;57637;49.272;8.590;2023-10-09T15:58:55;23.42;53.15
70246;SHT30;57637;49.272;8.590;2023-10-09T16:01:21;23.31;53.21
70246;SHT30;57637;49.272;8.590;2023-10-09T16:03:47;23.17;54.16
70246;SHT30;57637;49.272;8.590;2023-10-09T16:06:14;23.10;54.09
70246;SHT30;57637;49.272;8.590;2023-10-09T16:08:45;23.03;54.41
70246;SHT30;57637;49.272;8.590;2023-10-09T16:11:17;22.93;54.75
70246;SHT30;57637;49.272;8.590;2023-10-09T16:13:44;22.88;55.21
70246;SHT30;57637;49.272;8.590;2023-10-09T16:16:10;22.81;55.55
70246;SHT30;57637;49.272;8.590;2023-10-09T16:18:38;22.75;55.72
70246;SHT30;57637;49.272;8.590;2023-10-09T16:21:07;22.62;55.99
70246;SHT30;57637;49.272;8.590;2023-10-09T16:23:37;22.52;56.38
70246;SHT30;57637;49.272;8.590;2023-10-09T16:26:02;22.45;56.79